Time;durP1;ratioP1;P1;durP2;ratioP2;P2;SDS_P1;SDS_P2;PMS_P1;PMS_P2;Temp;Humidity;BMP_temperature;BMP_pressure;BME280_temperature;BME280_humidity;BME280_pressure;Samples;Min_cycle;Max_cycle;Signal;HPM_P1;HPM_P2
2021/12/18 04:02:03;;;;;;;12.30;8.80;;;4.40;84.90;;;;;;5420091;23;20577;-74
2021/12/18 04:04:30;;;;;;;10.43;8.33;;;4.30;84.60;;;;;;4976289;28;20446;-74
2021/12/18 04:06:57;;;;;;;10.97;8.63;;;4.30;84.50;;;;;;4976143;28;21016;-73
2021/12/18 04:09:24;;;;;;;10.07;8.17;;;4.20;84.80;;;;;;4976937;28;20458;-74
2021/12/18 04:11:51;;;;;;;9.60;8.17;;;4.00;85.60;;;;;;4976218;28;20469;-74
2021/12/18 04:14:18;;;;;;;9.40;8.37;;;4.20;85.20;;;;;;4977815;28;20490;-74
2021/12/18 04:16:45;;;;;;;9.53;7.70;;;4.00;85.60;;;;;;4976503;28;20548;-74
2021/12/18 04:19:13;;;;;;;9.03;8.13;;;4.10;85.60;;;;;;4976188;28;20446;-73
2021/12/18 04:21:40;;;;;;;9.73;8.37;;;4.20;85.10;;;;;;4975969;28;20484;-74
2021/12/18 04:24:08;;;;;;;9.33;8.20;;;4.40;84.30;;;;;;4976060;28;20500;-74
2021/12/18 04:26:36;;;;;;;10.80;8.80;;;4.50;84.00;;;;;;4976085;28;20458;-74
2021/12/18 04:29:05;;;;;;;9.83;8.17;;;4.50;83.50;;;;;;4975881;28;20446;-73
2021/12/18 04:31:33;;;;;;;10.43;8.70;;;4.50;83.60;;;;;;4975935;28;20510;-74
2021/12/18 04:33:59;;;;;;;9.63;7.87;;;4.20;84.40;;;;;;4975771;28;20492;-74
2021/12/18 04:36:27;;;;;;;8.83;7.43;;;4.00;84.90;;;;;;4975736;28;20446;-74
2021/12/18 04:38:54;;;;;;;10.20;7.83;;;4.00;85.40;;;;;;4975663;28;20461;-73
2021/12/18 04:41:23;;;;;;;9.30;8.20;;;3.70;85.60;;;;;;4974927;28;20806;-73
2021/12/18 04:43:51;;;;;;;9.23;7.17;;;3.60;85.90;;;;;;4976700;28;20454;-74
2021/12/18 04:46:19;;;;;;;9.50;8.60;;;3.40;86.00;;;;;;4975993;28;20508;-74
2021/12/18 04:48:45;;;;;;;8.30;7.50;;;3.50;86.60;;;;;;4975727;28;20454;-74
2021/12/18 04:51:12;;;;;;;9.23;8.07;;;3.60;86.00;;;;;;4975654;28;20474;-74
2021/12/18 04:53:40;;;;;;;9.87;8.20;;;3.60;85.90;;;;;;4975528;28;20485;-74
2021/12/18 04:56:07;;;;;;;8.57;6.27;;;3.60;86.40;;;;;;4975248;28;20454;-73
2021/12/18 04:58:33;;;;;;;9.10;7.87;;;3.40;85.90;;;;;;4975573;28;20450;-74
2021/12/18 05:01:00;;;;;;;8.40;7.47;;;3.40;87.30;;;;;;4975518;28;20544;-74
2021/12/18 05:03:27;;;;;;;11.10;8.40;;;3.70;86.30;;;;;;4975689;28;20426;-74
2021/12/18 05:05:53;;;;;;;9.77;8.07;;;3.70;86.40;;;;;;4975657;28;20442;-73
2021/12/18 05:08:20;;;;;;;8.17;6.90;;;3.70;85.80;;;;;;4975806;28;20485;-74
2021/12/18 05:10:48;;;;;;;9.53;8.60;;;3.70;86.00;;;;;;4975793;28;20533;-74
2021/12/18 05:13:15;;;;;;;8.47;7.57;;;3.60;86.10;;;;;;4975517;28;20544;-74
2021/12/18 05:15:42;;;;;;;10.30;8.03;;;3.70;86.40;;;;;;4975496;28;20500;-74
2021/12/18 05:18:08;;;;;;;9.67;8.67;;;3.80;86.00;;;;;;4975453;28;20504;-74
2021/12/18 05:20:35;;;;;;;9.17;7.90;;;3.90;85.50;;;;;;4975527;28;20557;-74
2021/12/18 05:23:02;;;;;;;8.67;6.77;;;4.10;85.10;;;;;;4975558;28;20473;-74
2021/12/18 05:25:28;;;;;;;11.60;8.70;;;3.90;84.60;;;;;;4975793;28;20458;-74
2021/12/18 05:27:56;;;;;;;8.77;6.97;;;3.70;84.80;;;;;;4975542;28;20869;-74
2021/12/18 05:30:23;;;;;;;8.73;7.20;;;3.70;86.10;;;;;;4976126;28;20449;-75
2021/12/18 05:32:50;;;;;;;10.30;9.17;;;4.00;85.50;;;;;;4975360;28;20477;-74
2021/12/18 05:35:17;;;;;;;9.20;7.70;;;4.10;84.80;;;;;;4975123;28;20453;-74
2021/12/18 05:37:48;;;;;;;9.80;8.40;;;4.10;84.40;;;;;;4975281;28;20458;-74
2021/12/18 05:40:17;;;;;;;9.60;8.07;;;4.10;84.00;;;;;;4975377;28;20477;-74
2021/12/18 05:42:45;;;;;;;8.37;7.40;;;3.90;84.70;;;;;;4975150;28;20521;-74
2021/12/18 05:45:13;;;;;;;9.90;8.83;;;3.90;85.60;;;;;;4974541;28;20454;-74
2021/12/18 05:47:40;;;;;;;10.10;8.40;;;4.10;84.80;;;;;;4975274;28;20450;-74
2021/12/18 05:50:08;;;;;;;8.70;7.80;;;4.00;84.30;;;;;;4975140;28;20462;-74
2021/12/18 05:52:35;;;;;;;8.40;7.40;;;3.90;85.20;;;;;;4975109;28;20474;-74
2021/12/18 05:55:02;;;;;;;9.30;7.20;;;3.80;85.50;;;;;;4978514;28;20957;-74
2021/12/18 05:57:28;;;;;;;11.53;8.00;;;3.90;85.30;;;;;;4978847;28;20453;-73
2021/12/18 05:59:55;;;;;;;9.17;7.10;;;4.00;84.90;;;;;;4979024;28;20454;-74
2021/12/18 06:02:33;;;;;;;11.10;8.30;;;4.10;84.70;;;;;;4978454;28;20528;-74
2021/12/18 06:04:59;;;;;;;10.27;8.07;;;4.20;84.20;;;;;;4978610;28;20767;-74
2021/12/18 06:07:30;;;;;;;9.70;7.70;;;4.30;84.00;;;;;;4978963;28;20453;-74
2021/12/18 06:09:57;;;;;;;9.00;8.10;;;4.30;84.00;;;;;;4979340;28;20541;-74
2021/12/18 06:12:24;;;;;;;10.17;8.60;;;4.40;83.40;;;;;;4978590;28;20984;-74
2021/12/18 06:14:52;;;;;;;11.30;8.00;;;4.50;83.10;;;;;;4978668;28;20478;-74
2021/12/18 06:17:18;;;;;;;10.13;7.93;;;4.50;83.00;;;;;;4980927;28;20450;-74
2021/12/18 06:19:47;;;;;;;8.47;7.30;;;4.50;83.00;;;;;;4998191;28;20461;-74
2021/12/18 06:22:14;;;;;;;9.53;7.20;;;4.40;82.40;;;;;;4999436;28;20465;-74
2021/12/18 06:24:40;;;;;;;8.90;6.90;;;4.20;82.90;;;;;;4981259;28;20927;-74
2021/12/18 06:27:07;;;;;;;7.03;6.30;;;4.00;83.50;;;;;;4981185;28;20462;-74
2021/12/18 06:29:34;;;;;;;8.17;6.80;;;4.00;83.70;;;;;;4980530;28;20453;-74
2021/12/18 06:32:01;;;;;;;9.67;6.80;;;4.00;83.70;;;;;;4980544;28;20505;-74
2021/12/18 06:34:27;;;;;;;8.97;6.77;;;3.80;84.00;;;;;;4979615;28;20494;-74
2021/12/18 06:36:55;;;;;;;8.33;7.43;;;3.70;84.30;;;;;;4979349;28;20454;-74
2021/12/18 06:39:22;;;;;;;9.13;7.27;;;3.40;85.70;;;;;;4979073;28;20445;-74
2021/12/18 06:41:49;;;;;;;9.60;7.80;;;3.30;86.00;;;;;;4979481;28;20524;-73
2021/12/18 06:44:16;;;;;;;9.07;7.07;;;3.40;86.10;;;;;;4980185;28;20831;-74
2021/12/18 06:46:43;;;;;;;7.90;6.43;;;3.60;85.80;;;;;;4978292;28;20454;-74
2021/12/18 06:49:10;;;;;;;7.10;5.60;;;3.60;85.70;;;;;;4978037;28;20446;-74
2021/12/18 06:51:37;;;;;;;8.30;6.63;;;3.70;85.50;;;;;;4978536;28;20478;-74
2021/12/18 06:54:05;;;;;;;9.27;6.60;;;3.60;85.30;;;;;;4978476;28;20482;-74
2021/12/18 06:56:32;;;;;;;12.37;8.23;;;3.80;85.40;;;;;;4978263;28;20870;-74
2021/12/18 06:58:59;;;;;;;8.10;6.83;;;4.00;85.00;;;;;;4978289;28;20450;-74
2021/12/18 07:01:26;;;;;;;9.73;7.27;;;4.00;84.50;;;;;;4977833;28;20926;-74
2021/12/18 07:03:52;;;;;;;7.10;5.77;;;4.20;84.00;;;;;;4978159;28;20446;-74
2021/12/18 07:06:19;;;;;;;7.87;5.77;;;4.20;83.10;;;;;;4978463;28;20512;-74
2021/12/18 07:08:46;;;;;;;10.20;7.17;;;4.30;83.40;;;;;;4978427;28;20450;-74
2021/12/18 07:11:14;;;;;;;7.10;5.43;;;4.40;82.80;;;;;;4978017;28;20470;-74
2021/12/18 07:13:41;;;;;;;8.07;6.60;;;4.30;82.80;;;;;;4977995;28;20485;-74
2021/12/18 07:16:08;;;;;;;8.60;7.27;;;4.20;83.00;;;;;;4977950;28;20475;-74
2021/12/18 07:18:34;;;;;;;8.00;6.20;;;4.30;82.90;;;;;;4977935;28;20450;-74
2021/12/18 07:21:01;;;;;;;9.13;7.33;;;4.40;83.00;;;;;;4977802;28;20473;-74
2021/12/18 07:23:28;;;;;;;8.63;6.67;;;4.50;82.60;;;;;;4977790;28;20486;-74
2021/12/18 07:25:54;;;;;;;8.50;7.00;;;4.60;82.20;;;;;;4977677;28;20450;-74
2021/12/18 07:28:22;;;;;;;8.27;6.50;;;4.70;82.20;;;;;;4977525;28;20454;-74
2021/12/18 07:30:49;;;;;;;7.13;6.43;;;4.60;81.70;;;;;;4977686;28;20470;-74
2021/12/18 07:33:16;;;;;;;7.90;6.77;;;4.70;81.60;;;;;;4977431;28;20453;-74
2021/12/18 07:35:43;;;;;;;7.67;6.17;;;4.80;81.50;;;;;;4977307;28;20453;-74
2021/12/18 07:38:10;;;;;;;7.87;6.57;;;4.90;81.40;;;;;;4977563;28;20457;-74
2021/12/18 07:40:37;;;;;;;6.57;5.37;;;4.90;81.30;;;;;;4977498;28;20484;-74
2021/12/18 07:43:04;;;;;;;7.50;6.10;;;4.80;81.10;;;;;;4977342;28;20457;-74
2021/12/18 07:45:34;;;;;;;7.40;5.60;;;4.80;81.00;;;;;;4976960;28;20505;-74
2021/12/18 07:48:01;;;;;;;7.07;6.33;;;4.80;81.00;;;;;;4976947;28;20934;-74
2021/12/18 07:50:27;;;;;;;8.23;5.67;;;4.70;81.60;;;;;;4976870;28;20619;-74
2021/12/18 07:52:54;;;;;;;7.67;6.30;;;4.70;81.60;;;;;;4976753;28;20504;-74
2021/12/18 07:55:21;;;;;;;7.60;5.90;;;4.70;81.60;;;;;;4976771;28;20488;-73
2021/12/18 07:57:50;;;;;;;7.70;6.90;;;4.80;81.50;;;;;;4976463;28;20458;-74
2021/12/18 08:00:17;;;;;;;7.17;5.43;;;4.90;81.50;;;;;;4976545;28;20546;-73
2021/12/18 08:02:45;;;;;;;6.83;5.60;;;5.00;81.30;;;;;;4976898;28;21054;-74
2021/12/18 08:05:14;;;;;;;7.37;5.97;;;5.10;80.90;;;;;;4976566;28;20942;-74
2021/12/18 08:07:40;;;;;;;7.17;5.80;;;5.10;80.90;;;;;;4976676;28;20462;-74
2021/12/18 08:10:08;;;;;;;7.30;6.07;;;5.10;80.80;;;;;;4977051;28;20446;-74
2021/12/18 08:12:35;;;;;;;8.43;6.20;;;5.20;80.90;;;;;;4976922;28;20470;-74
2021/12/18 08:15:01;;;;;;;7.23;5.80;;;5.30;80.50;;;;;;4977325;28;20532;-74
2021/12/18 08:17:28;;;;;;;7.37;5.80;;;5.00;81.10;;;;;;4976313;28;20450;-74
2021/12/18 08:19:56;;;;;;;7.67;5.10;;;5.10;80.70;;;;;;4977715;28;20454;-74
2021/12/18 08:22:23;;;;;;;7.30;6.13;;;5.20;80.90;;;;;;4976513;28;20872;-74
2021/12/18 08:24:50;;;;;;;8.60;6.20;;;5.30;80.70;;;;;;4976931;28;20500;-74
2021/12/18 08:27:16;;;;;;;7.63;6.30;;;5.30;80.40;;;;;;4976325;28;20992;-74
2021/12/18 08:29:43;;;;;;;7.67;5.60;;;5.20;80.60;;;;;;4976571;28;20450;-74
2021/12/18 08:32:10;;;;;;;6.97;5.60;;;5.10;80.60;;;;;;4976609;28;20474;-74
2021/12/18 08:34:37;;;;;;;8.47;6.77;;;5.20;81.00;;;;;;4976184;28;20911;-74
2021/12/18 08:37:06;;;;;;;7.43;6.63;;;5.30;80.80;;;;;;4976633;28;20457;-74
2021/12/18 08:39:33;;;;;;;7.43;5.93;;;5.20;81.00;;;;;;4976235;28;20450;-73
2021/12/18 08:42:03;;;;;;;7.73;6.10;;;5.20;81.00;;;;;;4976410;28;20477;-74
2021/12/18 08:44:30;;;;;;;8.00;5.77;;;5.20;81.00;;;;;;4976648;28;20435;-74
2021/12/18 08:46:56;;;;;;;6.67;5.93;;;5.00;81.00;;;;;;4976150;28;20454;-74
2021/12/18 08:49:24;;;;;;;8.27;6.27;;;4.90;81.90;;;;;;4976090;28;20463;-73
2021/12/18 08:51:51;;;;;;;9.43;6.20;;;5.00;81.60;;;;;;4975885;28;20474;-74
2021/12/18 08:54:19;;;;;;;8.27;6.37;;;4.90;81.60;;;;;;4975988;28;20481;-74
2021/12/18 08:56:46;;;;;;;8.13;6.30;;;4.70;82.40;;;;;;4975579;28;20450;-74
2021/12/18 08:59:13;;;;;;;7.80;5.77;;;4.70;82.20;;;;;;4975809;28;20517;-74
2021/12/18 09:01:40;;;;;;;7.40;6.00;;;4.60;82.60;;;;;;4975604;28;20490;-74
2021/12/18 09:04:07;;;;;;;8.30;6.33;;;4.70;82.60;;;;;;4975625;28;21028;-74
2021/12/18 09:06:34;;;;;;;6.40;5.67;;;4.90;82.10;;;;;;4975655;28;20473;-74
2021/12/18 09:09:00;;;;;;;6.67;5.53;;;4.90;81.70;;;;;;4976187;28;20454;-73
2021/12/18 09:11:28;;;;;;;6.63;5.40;;;4.90;81.70;;;;;;4975837;28;20474;-74
2021/12/18 09:13:55;;;;;;;6.33;5.70;;;4.90;81.40;;;;;;4975374;28;20851;-73
2021/12/18 09:16:22;;;;;;;6.80;5.73;;;5.10;81.10;;;;;;4975662;28;20458;-74
2021/12/18 09:18:48;;;;;;;7.77;6.43;;;5.20;80.80;;;;;;4975626;28;20524;-74
2021/12/18 09:21:15;;;;;;;7.40;5.60;;;5.20;80.50;;;;;;4975159;28;20473;-73
2021/12/18 09:23:42;;;;;;;7.53;6.37;;;5.20;80.60;;;;;;4975122;28;20446;-74
2021/12/18 09:26:08;;;;;;;7.23;5.70;;;5.20;79.90;;;;;;4975094;28;20447;-74
2021/12/18 09:28:36;;;;;;;6.60;5.47;;;5.20;80.40;;;;;;4975087;28;20442;-73
2021/12/18 09:31:03;;;;;;;6.07;4.67;;;5.30;80.20;;;;;;4976068;28;20509;-74
2021/12/18 09:33:30;;;;;;;5.77;4.67;;;5.20;80.00;;;;;;4976404;28;20516;-74
2021/12/18 09:35:57;;;;;;;7.40;5.30;;;5.00;80.30;;;;;;4975315;28;20485;-71
2021/12/18 09:38:24;;;;;;;6.87;5.77;;;5.00;80.40;;;;;;4975492;28;20504;-71
2021/12/18 09:40:51;;;;;;;6.97;5.83;;;5.00;79.90;;;;;;4975308;28;20473;-71
2021/12/18 09:43:17;;;;;;;7.40;6.70;;;5.00;80.20;;;;;;4975475;28;20446;-71
2021/12/18 09:45:46;;;;;;;6.93;6.23;;;5.10;80.10;;;;;;4975333;28;20473;-70
2021/12/18 09:48:13;;;;;;;6.10;5.50;;;5.20;79.80;;;;;;4975229;28;20446;-71
2021/12/18 09:50:42;;;;;;;6.50;5.27;;;5.30;79.20;;;;;;4974626;28;20529;-72
2021/12/18 09:53:09;;;;;;;7.80;7.00;;;5.20;79.60;;;;;;4974736;28;20544;-71
2021/12/18 09:55:36;;;;;;;9.07;8.07;;;5.20;79.50;;;;;;4974823;28;20544;-68
2021/12/18 09:58:03;;;;;;;9.30;8.30;;;5.20;79.70;;;;;;4974959;28;20454;-69
2021/12/18 10:00:31;;;;;;;6.87;5.80;;;5.10;81.60;;;;;;4974825;28;20478;-68
2021/12/18 10:02:59;;;;;;;9.07;7.90;;;4.80;80.70;;;;;;4974432;28;20462;-70
2021/12/18 10:05:28;;;;;;;8.90;6.60;;;4.40;82.60;;;;;;4976565;28;20442;-71
2021/12/18 10:08:13;;;;;;;7.10;6.13;;;4.40;81.30;;;;;;4975527;28;20454;-71
2021/12/18 10:10:59;;;;;;;8.63;7.73;;;3.90;82.90;;;;;;4974577;28;20426;-71
2021/12/18 10:13:26;;;;;;;8.53;7.50;;;4.00;83.50;;;;;;4976353;28;20438;-70
2021/12/18 10:16:09;;;;;;;7.60;6.67;;;4.10;83.00;;;;;;4975815;28;20524;-71
2021/12/18 10:18:38;;;;;;;7.83;6.87;;;3.80;83.50;;;;;;4975811;28;20529;-71
2021/12/18 10:21:10;;;;;;;7.47;6.20;;;3.80;83.60;;;;;;4975465;28;20964;-71
2021/12/18 10:23:37;;;;;;;7.73;6.93;;;3.90;83.40;;;;;;4974924;28;20431;-71
2021/12/18 10:26:04;;;;;;;7.63;6.83;;;4.10;82.90;;;;;;4974978;28;20446;-71
2021/12/18 10:28:44;;;;;;;9.00;7.83;;;4.30;82.40;;;;;;4975007;28;20815;-72
2021/12/18 10:31:10;;;;;;;8.20;7.20;;;4.40;81.60;;;;;;4974770;28;20891;-72
2021/12/18 10:33:38;;;;;;;7.07;6.13;;;4.50;80.50;;;;;;4974562;28;20952;-71
2021/12/18 10:36:13;;;;;;;7.60;6.80;;;4.60;81.00;;;;;;4975147;28;20898;-72
2021/12/18 10:38:45;;;;;;;7.67;6.80;;;4.40;80.60;;;;;;4974937;28;20442;-71
2021/12/18 10:41:23;;;;;;;7.50;5.93;;;4.60;81.30;;;;;;4977724;28;20565;-71
2021/12/18 10:43:59;;;;;;;8.57;6.93;;;4.50;81.00;;;;;;4977855;28;20520;-70
2021/12/18 10:46:26;;;;;;;7.80;6.77;;;4.10;81.90;;;;;;4978061;28;20558;-71
2021/12/18 10:49:00;;;;;;;7.70;6.60;;;4.30;82.20;;;;;;4978096;28;20450;-71
2021/12/18 10:51:29;;;;;;;7.33;6.63;;;4.20;81.60;;;;;;4977879;28;20473;-71
2021/12/18 10:54:01;;;;;;;7.73;6.73;;;4.20;82.70;;;;;;4977573;28;20460;-71
2021/12/18 10:56:36;;;;;;;7.27;6.10;;;4.50;82.20;;;;;;4977492;28;20434;-71
2021/12/18 10:59:06;;;;;;;7.23;5.53;;;4.60;81.00;;;;;;4977606;28;20480;-71
2021/12/18 11:01:37;;;;;;;7.43;6.23;;;4.70;81.40;;;;;;4977113;28;20536;-72
2021/12/18 11:04:05;;;;;;;7.97;5.87;;;4.60;80.80;;;;;;4977429;28;20962;-74
2021/12/18 11:06:33;;;;;;;8.27;6.23;;;4.40;81.50;;;;;;4977285;28;20473;-71
2021/12/18 11:09:05;;;;;;;6.20;4.77;;;4.60;81.20;;;;;;4977535;28;20450;-69
2021/12/18 11:14:23;;;;;;;6.87;5.20;;;4.60;80.90;;;;;;4977569;28;20514;-73
2021/12/18 11:16:52;;;;;;;7.77;6.13;;;4.60;80.00;;;;;;4976850;28;20481;-73
2021/12/18 11:19:22;;;;;;;7.20;6.37;;;4.60;80.40;;;;;;4976965;28;20450;-73
2021/12/18 11:21:51;;;;;;;7.37;5.57;;;4.70;80.10;;;;;;4977094;28;20474;-71
2021/12/18 11:24:20;;;;;;;6.33;4.93;;;4.50;80.10;;;;;;4977815;28;20446;-72
2021/12/18 11:26:53;;;;;;;8.00;6.40;;;4.50;79.60;;;;;;4977515;28;20505;-73
2021/12/18 11:29:22;;;;;;;8.13;6.73;;;4.60;79.90;;;;;;4977296;28;20434;-71
2021/12/18 11:31:50;;;;;;;7.43;5.50;;;4.80;79.50;;;;;;4978138;28;20466;-72
2021/12/18 11:34:17;;;;;;;6.50;5.47;;;4.90;79.30;;;;;;4978444;28;20454;-73
2021/12/18 11:36:48;;;;;;;6.73;5.63;;;5.00;79.00;;;;;;4977975;28;20446;-72
2021/12/18 11:39:17;;;;;;;7.23;5.20;;;5.30;78.80;;;;;;4977788;28;20439;-72
2021/12/18 11:41:48;;;;;;;6.70;5.30;;;5.40;77.80;;;;;;4977714;28;20520;-72
2021/12/18 11:44:30;;;;;;;7.10;5.33;;;5.20;77.40;;;;;;4977823;28;20520;-71
2021/12/18 11:47:23;;;;;;;8.23;5.67;;;5.10;78.50;;;;;;4977457;28;20449;-72
2021/12/18 11:49:50;;;;;;;10.20;5.67;;;5.00;78.20;;;;;;4977550;28;20934;-72
2021/12/18 11:52:18;;;;;;;5.97;5.10;;;5.20;78.40;;;;;;4976491;28;20536;-72
2021/12/18 11:54:49;;;;;;;6.30;5.10;;;5.40;78.10;;;;;;4976274;28;20996;-70
2021/12/18 11:57:42;;;;;;;7.20;5.17;;;5.30;78.50;;;;;;4977195;28;20446;-72
2021/12/18 12:00:31;;;;;;;7.37;6.33;;;5.10;78.40;;;;;;4977768;28;20427;-72
2021/12/18 12:03:00;;;;;;;6.83;5.70;;;5.10;78.10;;;;;;4976452;28;20458;-71
2021/12/18 12:05:33;;;;;;;6.83;5.90;;;4.90;78.60;;;;;;4976499;28;20497;-72
2021/12/18 12:08:21;;;;;;;6.80;6.00;;;5.00;78.90;;;;;;4977442;28;20442;-74
2021/12/18 12:11:23;;;;;;;7.80;5.40;;;5.10;78.00;;;;;;4976719;28;20474;-66
2021/12/18 12:13:56;;;;;;;5.43;4.87;;;4.60;78.60;;;;;;4976537;28;20544;-65
2021/12/18 12:16:56;;;;;;;6.60;5.63;;;4.40;80.40;;;;;;4977015;28;20486;-67
2021/12/18 12:19:25;;;;;;;7.30;5.33;;;4.40;80.00;;;;;;4977529;28;20427;-67
2021/12/18 12:21:54;;;;;;;7.20;6.30;;;4.70;79.90;;;;;;4976844;28;20890;-67
2021/12/18 12:24:24;;;;;;;7.83;6.03;;;4.80;79.50;;;;;;4976905;28;20450;-67
2021/12/18 12:26:51;;;;;;;7.40;5.77;;;5.00;78.90;;;;;;4976764;28;20450;-67
2021/12/18 12:29:19;;;;;;;8.70;5.57;;;4.90;78.70;;;;;;4976941;28;20457;-67
2021/12/18 12:31:55;;;;;;;11.13;5.97;;;4.80;79.50;;;;;;4976440;28;20470;-68
2021/12/18 12:34:23;;;;;;;5.77;4.97;;;4.90;79.10;;;;;;4976367;28;20426;-67
2021/12/18 12:36:57;;;;;;;7.30;5.90;;;4.90;78.90;;;;;;4976234;28;20488;-70
2021/12/18 12:39:26;;;;;;;7.40;6.23;;;4.90;78.70;;;;;;4975836;28;20441;-67
2021/12/18 12:42:08;;;;;;;6.50;5.70;;;4.80;79.20;;;;;;4976127;28;20474;-68
2021/12/18 12:44:49;;;;;;;5.37;4.83;;;5.10;78.00;;;;;;4976727;28;20414;-68
2021/12/18 12:47:18;;;;;;;5.70;5.10;;;5.30;77.40;;;;;;4976634;28;20439;-67
2021/12/18 12:49:48;;;;;;;6.57;5.70;;;5.50;77.00;;;;;;4977124;28;20455;-67
2021/12/18 12:52:15;;;;;;;6.20;5.60;;;5.50;76.40;;;;;;4977190;28;20478;-68
2021/12/18 12:54:49;;;;;;;7.27;6.57;;;5.30;77.00;;;;;;4975827;28;21028;-70
2021/12/18 12:57:55;;;;;;;6.93;6.23;;;5.50;76.70;;;;;;4976162;28;20504;-69
2021/12/18 13:00:43;;;;;;;7.20;6.50;;;5.60;76.30;;;;;;4976602;28;20457;-69
2021/12/18 13:03:16;;;;;;;8.63;7.13;;;5.70;76.10;;;;;;4976661;28;20437;-67
2021/12/18 13:05:54;;;;;;;6.87;6.17;;;5.10;77.00;;;;;;4976779;28;21052;-68
2021/12/18 13:08:22;;;;;;;6.87;6.10;;;5.20;77.80;;;;;;4977613;28;20438;-69
2021/12/18 13:10:53;;;;;;;6.20;5.53;;;5.50;77.10;;;;;;4976653;28;20493;-67
2021/12/18 13:13:22;;;;;;;8.00;5.70;;;5.60;76.30;;;;;;4976093;28;20910;-69
2021/12/18 13:15:52;;;;;;;6.00;5.40;;;5.70;76.00;;;;;;4976238;28;20572;-68
2021/12/18 13:18:21;;;;;;;7.50;5.60;;;5.60;76.10;;;;;;4975715;28;20493;-69
2021/12/18 13:20:55;;;;;;;7.43;6.10;;;5.70;76.00;;;;;;4976185;28;20981;-69
2021/12/18 13:23:23;;;;;;;6.30;5.30;;;5.50;76.00;;;;;;4975829;28;20496;-68
2021/12/18 13:25:53;;;;;;;6.13;5.03;;;5.30;76.80;;;;;;4976289;28;20453;-69
2021/12/18 13:28:20;;;;;;;8.07;5.70;;;4.90;78.30;;;;;;4975766;28;20435;-68
2021/12/18 13:30:50;;;;;;;6.67;5.87;;;5.00;78.10;;;;;;4975799;28;20489;-68
2021/12/18 13:33:24;;;;;;;6.77;6.07;;;4.90;78.70;;;;;;4976031;28;20968;-69
2021/12/18 13:35:56;;;;;;;5.87;5.33;;;5.30;77.70;;;;;;4976119;28;20470;-68
2021/12/18 13:38:25;;;;;;;6.00;5.37;;;5.10;78.60;;;;;;4975274;28;20501;-66
2021/12/18 13:40:55;;;;;;;6.53;5.33;;;5.50;77.70;;;;;;4975014;28;20473;-67
2021/12/18 13:43:24;;;;;;;7.03;6.23;;;5.70;76.70;;;;;;4975209;28;20453;-69
2021/12/18 13:45:53;;;;;;;7.50;6.17;;;5.80;76.30;;;;;;4975412;28;20457;-69
2021/12/18 13:48:22;;;;;;;7.93;6.33;;;5.80;76.10;;;;;;4976032;28;20962;-68
2021/12/18 13:50:54;;;;;;;6.93;6.23;;;5.80;76.20;;;;;;4974900;28;20470;-68
2021/12/18 13:53:20;;;;;;;7.00;6.30;;;6.00;75.80;;;;;;4975740;28;20528;-68
2021/12/18 13:55:55;;;;;;;7.40;6.50;;;6.00;75.70;;;;;;4975299;28;20486;-70
2021/12/18 13:58:26;;;;;;;7.43;6.40;;;6.00;75.70;;;;;;4976069;28;20441;-69
2021/12/18 14:01:00;;;;;;;8.00;5.70;;;6.00;74.90;;;;;;4975859;28;20481;-68
2021/12/18 14:03:31;;;;;;;7.63;5.93;;;5.90;75.10;;;;;;4975362;28;20476;-69
2021/12/18 14:06:02;;;;;;;7.63;6.77;;;5.80;75.50;;;;;;4975484;28;20446;-68
2021/12/18 14:08:30;;;;;;;7.47;6.40;;;5.80;76.00;;;;;;4975606;28;20799;-67
2021/12/18 14:11:02;;;;;;;7.03;6.23;;;5.80;76.00;;;;;;4975516;28;20469;-69
2021/12/18 14:13:30;;;;;;;6.37;5.70;;;5.90;76.10;;;;;;4975160;28;20896;-68
2021/12/18 14:16:07;;;;;;;6.17;5.40;;;5.90;75.60;;;;;;4978232;28;20493;-68
2021/12/18 14:18:37;;;;;;;8.40;6.37;;;6.00;75.50;;;;;;4979299;28;20484;-68
2021/12/18 14:21:05;;;;;;;7.13;6.40;;;6.20;75.10;;;;;;4980087;28;20473;-68
2021/12/18 14:23:34;;;;;;;7.83;6.70;;;6.20;75.00;;;;;;4978652;28;20457;-69
2021/12/18 14:26:22;;;;;;;8.70;6.87;;;6.40;74.50;;;;;;4978924;28;20453;-67
2021/12/18 14:28:53;;;;;;;6.17;5.57;;;6.50;74.20;;;;;;4978620;28;20430;-69
2021/12/18 14:31:24;;;;;;;7.30;5.60;;;6.70;73.80;;;;;;4978317;28;20505;-68
2021/12/18 14:33:53;;;;;;;9.00;6.17;;;6.80;73.20;;;;;;4978737;28;20516;-68
2021/12/18 14:36:42;;;;;;;7.60;6.70;;;6.90;73.00;;;;;;4978724;28;20580;-68
2021/12/18 14:39:09;;;;;;;7.07;5.47;;;6.90;72.60;;;;;;4978451;28;20926;-70
2021/12/18 14:41:36;;;;;;;6.90;6.23;;;6.90;72.40;;;;;;4978504;28;20465;-68
2021/12/18 14:44:05;;;;;;;6.63;5.70;;;6.90;72.40;;;;;;4978640;28;20460;-70
2021/12/18 14:46:33;;;;;;;6.73;6.03;;;6.90;72.50;;;;;;4978715;28;20496;-69
2021/12/18 14:49:09;;;;;;;9.37;6.67;;;6.80;72.60;;;;;;4978592;28;20949;-70
2021/12/18 14:51:37;;;;;;;6.97;5.67;;;6.70;72.70;;;;;;4978591;28;20462;-68
2021/12/18 14:54:04;;;;;;;7.73;6.30;;;6.50;73.20;;;;;;4979103;28;20450;-69
2021/12/18 14:56:31;;;;;;;7.67;6.70;;;6.50;73.30;;;;;;4979111;28;21071;-69
2021/12/18 14:58:58;;;;;;;6.70;6.00;;;6.40;73.50;;;;;;4979585;28;20454;-68
2021/12/18 15:01:26;;;;;;;6.67;5.13;;;6.40;73.80;;;;;;4978289;28;20482;-69
2021/12/18 15:03:55;;;;;;;7.70;6.30;;;6.40;73.60;;;;;;4978298;28;20457;-69
2021/12/18 15:06:24;;;;;;;8.40;6.77;;;6.40;73.60;;;;;;4978266;28;20450;-68
2021/12/18 15:08:56;;;;;;;6.87;6.17;;;6.50;73.70;;;;;;4978402;28;20552;-68
2021/12/18 15:11:26;;;;;;;6.73;6.03;;;6.40;73.60;;;;;;4977975;28;20876;-68
2021/12/18 15:13:54;;;;;;;6.80;5.70;;;6.40;74.00;;;;;;4978133;28;20446;-68
2021/12/18 15:16:44;;;;;;;7.23;6.03;;;6.20;74.30;;;;;;4977758;28;20482;-68
2021/12/18 15:19:14;;;;;;;8.03;7.23;;;6.20;74.50;;;;;;4973726;28;20458;-69
2021/12/18 15:21:42;;;;;;;8.67;7.70;;;6.20;74.50;;;;;;4978192;28;20482;-68
2021/12/18 15:24:11;;;;;;;7.20;5.83;;;6.20;74.80;;;;;;4978444;28;20449;-68
2021/12/18 15:26:40;;;;;;;7.30;6.00;;;6.10;75.00;;;;;;4977830;28;20465;-68
2021/12/18 15:29:09;;;;;;;7.37;6.33;;;6.00;75.50;;;;;;4978952;28;20457;-68
2021/12/18 15:31:36;;;;;;;6.77;5.60;;;6.00;75.70;;;;;;4979624;28;20470;-68
2021/12/18 15:34:07;;;;;;;6.80;5.67;;;5.90;76.10;;;;;;4979246;28;20473;-70
2021/12/18 15:36:34;;;;;;;6.77;5.70;;;5.80;76.50;;;;;;4979502;28;20482;-69
2021/12/18 15:39:03;;;;;;;8.77;6.43;;;5.80;76.50;;;;;;4978603;28;20461;-69
2021/12/18 15:41:31;;;;;;;8.10;6.43;;;5.90;76.40;;;;;;4978063;28;20478;-68
2021/12/18 15:43:58;;;;;;;13.93;12.00;;;5.70;76.30;;;;;;4978565;28;20462;-68
2021/12/18 15:46:25;;;;;;;7.90;7.00;;;5.60;76.60;;;;;;4978281;28;20450;-68
2021/12/18 15:48:52;;;;;;;9.20;7.60;;;5.60;76.80;;;;;;4978329;28;20449;-67
2021/12/18 15:51:20;;;;;;;11.43;9.80;;;5.70;76.90;;;;;;4977843;28;20481;-67
2021/12/18 15:53:47;;;;;;;16.60;14.90;;;5.60;76.90;;;;;;4977839;28;20466;-67
2021/12/18 15:56:16;;;;;;;10.60;8.60;;;5.60;77.00;;;;;;4977198;28;20493;-68
2021/12/18 15:58:44;;;;;;;8.63;7.70;;;5.40;77.70;;;;;;4977270;28;20458;-68
2021/12/18 16:01:12;;;;;;;7.50;5.60;;;5.40;78.10;;;;;;4976957;28;20493;-67
2021/12/18 16:03:38;;;;;;;7.20;5.53;;;5.40;78.40;;;;;;4977813;28;20453;-68
2021/12/18 16:06:10;;;;;;;6.80;5.60;;;5.20;78.60;;;;;;4977226;28;20446;-68
2021/12/18 16:08:48;;;;;;;7.87;6.43;;;5.10;79.40;;;;;;4976735;28;20921;-68
2021/12/18 16:11:16;;;;;;;7.33;6.60;;;5.30;79.20;;;;;;4977600;28;20840;-68
2021/12/18 16:13:43;;;;;;;8.00;7.03;;;5.30;79.00;;;;;;4978452;28;20458;-67
2021/12/18 16:16:10;;;;;;;9.30;7.27;;;5.40;79.00;;;;;;4977321;28;20486;-68
2021/12/18 16:18:37;;;;;;;10.00;9.00;;;5.50;78.80;;;;;;4976814;28;20538;-68
2021/12/18 16:21:05;;;;;;;9.13;7.60;;;5.40;78.70;;;;;;4977107;28;20993;-68
2021/12/18 16:23:32;;;;;;;8.00;6.67;;;5.30;79.00;;;;;;4977061;28;20461;-68
2021/12/18 16:26:00;;;;;;;6.47;5.70;;;5.40;79.10;;;;;;4976981;28;20506;-68
2021/12/18 16:28:27;;;;;;;7.83;6.67;;;5.40;79.10;;;;;;4977273;28;20516;-67
2021/12/18 16:30:53;;;;;;;8.40;7.30;;;5.20;79.30;;;;;;4976181;28;20565;-68
2021/12/18 16:33:29;;;;;;;8.00;6.90;;;5.10;79.70;;;;;;4976086;28;20508;-66
2021/12/18 16:35:56;;;;;;;11.57;8.30;;;5.10;80.00;;;;;;4976588;28;20487;-66
2021/12/18 16:38:32;;;;;;;9.90;8.37;;;5.20;80.00;;;;;;4975607;28;20446;-66
2021/12/18 16:41:01;;;;;;;9.23;8.17;;;5.20;80.10;;;;;;4976469;28;20576;-66
2021/12/18 16:43:28;;;;;;;7.93;7.03;;;5.10;79.90;;;;;;4975616;28;20938;-66
2021/12/18 16:45:55;;;;;;;8.00;7.20;;;5.00;80.40;;;;;;4975783;28;20454;-66
2021/12/18 16:48:23;;;;;;;8.17;7.37;;;4.90;80.90;;;;;;4976134;28;20501;-66
2021/12/18 16:50:51;;;;;;;10.90;8.03;;;4.70;81.30;;;;;;4976100;28;20525;-66
2021/12/18 16:53:19;;;;;;;10.00;8.53;;;4.70;82.00;;;;;;4975750;28;20454;-66
2021/12/18 16:55:46;;;;;;;10.57;7.93;;;4.60;82.40;;;;;;4975994;28;20504;-66
2021/12/18 16:58:14;;;;;;;12.47;8.47;;;4.70;82.10;;;;;;4975891;28;20489;-66
2021/12/18 17:00:40;;;;;;;10.47;9.37;;;4.90;82.10;;;;;;4975156;28;20442;-66
2021/12/18 17:03:07;;;;;;;10.70;8.77;;;5.00;81.70;;;;;;4975125;28;20481;-66
2021/12/18 17:05:36;;;;;;;10.67;9.03;;;5.10;81.50;;;;;;4976233;28;20454;-67
2021/12/18 17:08:04;;;;;;;8.60;7.67;;;5.30;81.00;;;;;;4976335;28;20454;-67
2021/12/18 17:10:31;;;;;;;7.33;6.57;;;5.40;80.70;;;;;;4976146;28;20512;-68